sensor_id;sensor_type;location;lat;lon;timestamp;P1;P2;P0
67892;PMS7003;54688;52.376;16.744;2022-10-17T00:00:34;49;39;
67892;PMS7003;54688;52.376;16.744;2022-10-17T00:04:02;43;37;
67892;PMS7003;54688;52.376;16.744;2022-10-17T00:07:04;45;36;
67892;PMS7003;54688;52.376;16.744;2022-10-17T00:10:06;45;36;
67892;PMS7003;54688;52.376;16.744;2022-10-17T00:13:09;34;31;
67892;PMS7003;54688;52.376;16.744;2022-10-17T00:16:12;43;31;
67892;PMS7003;54688;52.376;16.744;2022-10-17T00:19:14;34;29;
67892;PMS7003;54688;52.376;16.744;2022-10-17T00:22:16;39;32;
67892;PMS7003;54688;52.376;16.744;2022-10-17T00:25:18;41;33;
67892;PMS7003;54688;52.376;16.744;2022-10-17T00:28:19;34;30;
67892;PMS7003;54688;52.376;16.744;2022-10-17T00:31:24;31;28;
67892;PMS7003;54688;52.376;16.744;2022-10-17T00:34:28;28;24;
67892;PMS7003;54688;52.376;16.744;2022-10-17T00:37:31;30;29;
67892;PMS7003;54688;52.376;16.744;2022-10-17T00:40:32;35;27;
67892;PMS7003;54688;52.376;16.744;2022-10-17T00:43:54;30;27;
67892;PMS7003;54688;52.376;16.744;2022-10-17T00:46:57;22;20;
67892;PMS7003;54688;52.376;16.744;2022-10-17T00:49:59;33;26;
67892;PMS7003;54688;52.376;16.744;2022-10-17T00:53:03;35;30;
67892;PMS7003;54688;52.376;16.744;2022-10-17T00:56:06;34;27;
67892;PMS7003;54688;52.376;16.744;2022-10-17T00:59:09;37;33;
67892;PMS7003;54688;52.376;16.744;2022-10-17T01:02:14;40;31;
67892;PMS7003;54688;52.376;16.744;2022-10-17T01:05:17;35;30;
67892;PMS7003;54688;52.376;16.744;2022-10-17T01:08:19;30;30;
67892;PMS7003;54688;52.376;16.744;2022-10-17T01:11:31;33;30;
67892;PMS7003;54688;52.376;16.744;2022-10-17T01:14:39;42;32;
67892;PMS7003;54688;52.376;16.744;2022-10-17T01:17:53;39;33;
67892;PMS7003;54688;52.376;16.744;2022-10-17T01:21:05;35;30;
67892;PMS7003;54688;52.376;16.744;2022-10-17T01:24:32;33;26;
67892;PMS7003;54688;52.376;16.744;2022-10-17T01:27:50;37;32;
67892;PMS7003;54688;52.376;16.744;2022-10-17T01:30:58;44;32;
67892;PMS7003;54688;52.376;16.744;2022-10-17T01:34:09;31;26;
67892;PMS7003;54688;52.376;16.744;2022-10-17T01:37:19;39;33;
67892;PMS7003;54688;52.376;16.744;2022-10-17T01:40:25;33;30;
67892;PMS7003;54688;52.376;16.744;2022-10-17T01:43:33;34;29;
67892;PMS7003;54688;52.376;16.744;2022-10-17T01:46:37;40;32;
67892;PMS7003;54688;52.376;16.744;2022-10-17T01:49:42;45;35;
67892;PMS7003;54688;52.376;16.744;2022-10-17T01:52:47;50;36;
67892;PMS7003;54688;52.376;16.744;2022-10-17T01:55:53;44;36;
67892;PMS7003;54688;52.376;16.744;2022-10-17T01:58:59;42;32;
67892;PMS7003;54688;52.376;16.744;2022-10-17T02:02:02;47;36;
67892;PMS7003;54688;52.376;16.744;2022-10-17T02:05:05;49;35;
67892;PMS7003;54688;52.376;16.744;2022-10-17T02:08:09;44;33;
67892;PMS7003;54688;52.376;16.744;2022-10-17T02:11:13;50;34;
67892;PMS7003;54688;52.376;16.744;2022-10-17T02:14:22;43;34;
67892;PMS7003;54688;52.376;16.744;2022-10-17T02:17:34;45;35;
67892;PMS7003;54688;52.376;16.744;2022-10-17T02:20:48;39;33;
67892;PMS7003;54688;52.376;16.744;2022-10-17T02:23:54;42;35;
67892;PMS7003;54688;52.376;16.744;2022-10-17T02:27:05;37;31;
67892;PMS7003;54688;52.376;16.744;2022-10-17T02:30:10;41;32;
67892;PMS7003;54688;52.376;16.744;2022-10-17T02:33:16;44;36;
67892;PMS7003;54688;52.376;16.744;2022-10-17T02:36:26;44;32;
67892;PMS7003;54688;52.376;16.744;2022-10-17T02:39:30;47;38;
67892;PMS7003;54688;52.376;16.744;2022-10-17T02:42:33;49;36;
67892;PMS7003;54688;52.376;16.744;2022-10-17T02:45:36;45;36;
67892;PMS7003;54688;52.376;16.744;2022-10-17T02:48:41;45;35;
67892;PMS7003;54688;52.376;16.744;2022-10-17T02:51:50;55;36;
67892;PMS7003;54688;52.376;16.744;2022-10-17T02:54:57;48;39;
67892;PMS7003;54688;52.376;16.744;2022-10-17T02:58:04;50;39;
67892;PMS7003;54688;52.376;16.744;2022-10-17T03:01:07;47;38;
67892;PMS7003;54688;52.376;16.744;2022-10-17T03:04:11;50;41;
67892;PMS7003;54688;52.376;16.744;2022-10-17T03:07:13;51;39;
67892;PMS7003;54688;52.376;16.744;2022-10-17T03:10:16;50;38;
67892;PMS7003;54688;52.376;16.744;2022-10-17T03:13:19;49;38;
67892;PMS7003;54688;52.376;16.744;2022-10-17T03:16:21;53;41;
67892;PMS7003;54688;52.376;16.744;2022-10-17T03:19:23;50;40;
67892;PMS7003;54688;52.376;16.744;2022-10-17T03:22:25;52;41;
67892;PMS7003;54688;52.376;16.744;2022-10-17T03:25:28;52;43;
67892;PMS7003;54688;52.376;16.744;2022-10-17T03:28:30;56;41;
67892;PMS7003;54688;52.376;16.744;2022-10-17T03:31:32;52;39;
67892;PMS7003;54688;52.376;16.744;2022-10-17T03:34:34;56;40;
67892;PMS7003;54688;52.376;16.744;2022-10-17T03:37:37;48;39;
67892;PMS7003;54688;52.376;16.744;2022-10-17T03:40:39;52;42;
67892;PMS7003;54688;52.376;16.744;2022-10-17T03:43:41;61;42;
67892;PMS7003;54688;52.376;16.744;2022-10-17T03:46:43;55;41;
67892;PMS7003;54688;52.376;16.744;2022-10-17T03:49:45;53;41;
67892;PMS7003;54688;52.376;16.744;2022-10-17T03:52:48;48;38;
67892;PMS7003;54688;52.376;16.744;2022-10-17T03:55:50;54;42;
67892;PMS7003;54688;52.376;16.744;2022-10-17T03:58:52;49;39;
67892;PMS7003;54688;52.376;16.744;2022-10-17T04:01:54;46;35;
67892;PMS7003;54688;52.376;16.744;2022-10-17T04:04:56;47;39;
67892;PMS7003;54688;52.376;16.744;2022-10-17T04:07:58;45;36;
67892;PMS7003;54688;52.376;16.744;2022-10-17T04:11:02;49;38;
67892;PMS7003;54688;52.376;16.744;2022-10-17T04:14:05;44;34;
67892;PMS7003;54688;52.376;16.744;2022-10-17T04:17:07;45;33;
67892;PMS7003;54688;52.376;16.744;2022-10-17T04:20:09;39;33;
67892;PMS7003;54688;52.376;16.744;2022-10-17T04:23:11;47;37;
67892;PMS7003;54688;52.376;16.744;2022-10-17T04:26:12;44;34;
67892;PMS7003;54688;52.376;16.744;2022-10-17T04:29:14;38;33;
67892;PMS7003;54688;52.376;16.744;2022-10-17T04:32:17;43;31;
67892;PMS7003;54688;52.376;16.744;2022-10-17T04:35:18;50;39;
67892;PMS7003;54688;52.376;16.744;2022-10-17T04:38:21;44;33;
67892;PMS7003;54688;52.376;16.744;2022-10-17T04:41:23;41;33;
67892;PMS7003;54688;52.376;16.744;2022-10-17T04:44:25;43;35;
67892;PMS7003;54688;52.376;16.744;2022-10-17T04:47:27;37;31;
67892;PMS7003;54688;52.376;16.744;2022-10-17T04:50:29;44;34;
67892;PMS7003;54688;52.376;16.744;2022-10-17T04:53:32;45;36;
67892;PMS7003;54688;52.376;16.744;2022-10-17T04:56:35;40;31;
67892;PMS7003;54688;52.376;16.744;2022-10-17T04:59:36;39;32;
67892;PMS7003;54688;52.376;16.744;2022-10-17T05:02:38;46;34;
67892;PMS7003;54688;52.376;16.744;2022-10-17T05:05:41;46;35;
67892;PMS7003;54688;52.376;16.744;2022-10-17T05:08:43;44;33;
67892;PMS7003;54688;52.376;16.744;2022-10-17T05:11:45;39;33;
67892;PMS7003;54688;52.376;16.744;2022-10-17T05:14:47;34;30;
67892;PMS7003;54688;52.376;16.744;2022-10-17T05:17:53;45;34;
67892;PMS7003;54688;52.376;16.744;2022-10-17T05:20:55;42;32;
67892;PMS7003;54688;52.376;16.744;2022-10-17T05:23:58;45;36;
67892;PMS7003;54688;52.376;16.744;2022-10-17T05:27:00;43;32;
67892;PMS7003;54688;52.376;16.744;2022-10-17T05:30:06;43;33;
67892;PMS7003;54688;52.376;16.744;2022-10-17T05:33:08;42;32;
67892;PMS7003;54688;52.376;16.744;2022-10-17T05:36:11;49;34;
67892;PMS7003;54688;52.376;16.744;2022-10-17T05:39:14;41;32;
67892;PMS7003;54688;52.376;16.744;2022-10-17T05:42:16;40;32;
67892;PMS7003;54688;52.376;16.744;2022-10-17T05:45:18;38;32;
67892;PMS7003;54688;52.376;16.744;2022-10-17T05:48:21;44;34;
67892;PMS7003;54688;52.376;16.744;2022-10-17T05:51:23;43;33;
67892;PMS7003;54688;52.376;16.744;2022-10-17T05:54:25;41;33;
67892;PMS7003;54688;52.376;16.744;2022-10-17T05:57:27;39;31;
67892;PMS7003;54688;52.376;16.744;2022-10-17T06:00:30;49;36;
67892;PMS7003;54688;52.376;16.744;2022-10-17T06:03:32;47;38;
67892;PMS7003;54688;52.376;16.744;2022-10-17T06:06:35;39;34;
67892;PMS7003;54688;52.376;16.744;2022-10-17T06:09:37;50;38;
67892;PMS7003;54688;52.376;16.744;2022-10-17T06:12:39;47;35;
67892;PMS7003;54688;52.376;16.744;2022-10-17T06:15:42;48;36;
67892;PMS7003;54688;52.376;16.744;2022-10-17T06:18:44;44;35;
67892;PMS7003;54688;52.376;16.744;2022-10-17T06:21:46;48;36;
67892;PMS7003;54688;52.376;16.744;2022-10-17T06:24:48;39;34;
67892;PMS7003;54688;52.376;16.744;2022-10-17T06:27:49;40;33;
67892;PMS7003;54688;52.376;16.744;2022-10-17T06:30:51;37;32;
67892;PMS7003;54688;52.376;16.744;2022-10-17T06:33:53;45;36;
67892;PMS7003;54688;52.376;16.744;2022-10-17T06:36:55;42;34;
67892;PMS7003;54688;52.376;16.744;2022-10-17T06:39:58;47;36;
67892;PMS7003;54688;52.376;16.744;2022-10-17T06:43:00;44;33;
67892;PMS7003;54688;52.376;16.744;2022-10-17T06:46:02;45;35;
67892;PMS7003;54688;52.376;16.744;2022-10-17T06:49:04;45;37;
67892;PMS7003;54688;52.376;16.744;2022-10-17T06:52:05;45;38;
67892;PMS7003;54688;52.376;16.744;2022-10-17T06:55:08;50;39;
67892;PMS7003;54688;52.376;16.744;2022-10-17T06:58:10;51;39;
67892;PMS7003;54688;52.376;16.744;2022-10-17T07:01:13;57;44;
67892;PMS7003;54688;52.376;16.744;2022-10-17T07:04:15;58;44;
67892;PMS7003;54688;52.376;16.744;2022-10-17T07:07:17;49;41;
67892;PMS7003;54688;52.376;16.744;2022-10-17T07:10:20;53;39;
67892;PMS7003;54688;52.376;16.744;2022-10-17T07:13:23;58;42;
67892;PMS7003;54688;52.376;16.744;2022-10-17T07:16:26;58;44;
67892;PMS7003;54688;52.376;16.744;2022-10-17T07:19:27;55;43;
67892;PMS7003;54688;52.376;16.744;2022-10-17T07:22:29;60;44;
67892;PMS7003;54688;52.376;16.744;2022-10-17T07:25:31;48;39;
67892;PMS7003;54688;52.376;16.744;2022-10-17T07:28:34;50;40;
67892;PMS7003;54688;52.376;16.744;2022-10-17T07:31:36;52;41;
67892;PMS7003;54688;52.376;16.744;2022-10-17T07:34:38;52;40;
67892;PMS7003;54688;52.376;16.744;2022-10-17T07:37:40;52;43;
67892;PMS7003;54688;52.376;16.744;2022-10-17T07:40:43;52;41;
67892;PMS7003;54688;52.376;16.744;2022-10-17T07:43:45;53;40;
67892;PMS7003;54688;52.376;16.744;2022-10-17T07:46:47;53;42;
67892;PMS7003;54688;52.376;16.744;2022-10-17T07:49:49;54;41;
67892;PMS7003;54688;52.376;16.744;2022-10-17T07:52:51;56;41;
67892;PMS7003;54688;52.376;16.744;2022-10-17T07:55:53;53;40;
67892;PMS7003;54688;52.376;16.744;2022-10-17T07:58:56;52;42;
67892;PMS7003;54688;52.376;16.744;2022-10-17T08:01:58;55;40;
67892;PMS7003;54688;52.376;16.744;2022-10-17T08:05:00;43;36;
67892;PMS7003;54688;52.376;16.744;2022-10-17T08:08:02;53;43;
67892;PMS7003;54688;52.376;16.744;2022-10-17T08:11:06;48;39;
67892;PMS7003;54688;52.376;16.744;2022-10-17T08:14:08;49;41;
67892;PMS7003;54688;52.376;16.744;2022-10-17T08:17:10;51;41;
67892;PMS7003;54688;52.376;16.744;2022-10-17T08:20:12;53;40;
67892;PMS7003;54688;52.376;16.744;2022-10-17T08:23:13;53;41;
67892;PMS7003;54688;52.376;16.744;2022-10-17T08:26:16;47;41;
67892;PMS7003;54688;52.376;16.744;2022-10-17T08:29:19;57;43;
67892;PMS7003;54688;52.376;16.744;2022-10-17T08:32:22;51;39;
67892;PMS7003;54688;52.376;16.744;2022-10-17T08:35:24;52;40;
67892;PMS7003;54688;52.376;16.744;2022-10-17T08:38:27;52;41;
67892;PMS7003;54688;52.376;16.744;2022-10-17T08:41:44;50;38;
67892;PMS7003;54688;52.376;16.744;2022-10-17T08:44:56;51;36;
67892;PMS7003;54688;52.376;16.744;2022-10-17T08:48:03;48;37;
67892;PMS7003;54688;52.376;16.744;2022-10-17T08:51:12;50;38;
67892;PMS7003;54688;52.376;16.744;2022-10-17T08:54:19;53;38;
67892;PMS7003;54688;52.376;16.744;2022-10-17T08:57:23;46;38;
67892;PMS7003;54688;52.376;16.744;2022-10-17T09:00:25;46;36;
67892;PMS7003;54688;52.376;16.744;2022-10-17T09:03:42;42;35;
67892;PMS7003;54688;52.376;16.744;2022-10-17T09:06:49;43;34;
67892;PMS7003;54688;52.376;16.744;2022-10-17T09:09:58;39;32;
67892;PMS7003;54688;52.376;16.744;2022-10-17T09:13:09;35;32;
67892;PMS7003;54688;52.376;16.744;2022-10-17T09:16:31;35;32;
67892;PMS7003;54688;52.376;16.744;2022-10-17T09:19:37;37;31;
67892;PMS7003;54688;52.376;16.744;2022-10-17T09:25:41;35;30;
67892;PMS7003;54688;52.376;16.744;2022-10-17T09:28:46;31;30;
67892;PMS7003;54688;52.376;16.744;2022-10-17T09:31:57;33;30;
67892;PMS7003;54688;52.376;16.744;2022-10-17T09:35:01;34;29;
67892;PMS7003;54688;52.376;16.744;2022-10-17T09:38:03;31;30;
67892;PMS7003;54688;52.376;16.744;2022-10-17T09:41:14;27;25;
67892;PMS7003;54688;52.376;16.744;2022-10-17T09:44:19;37;31;
67892;PMS7003;54688;52.376;16.744;2022-10-17T09:47:27;39;30;
67892;PMS7003;54688;52.376;16.744;2022-10-17T09:50:32;31;28;
67892;PMS7003;54688;52.376;16.744;2022-10-17T09:53:37;30;27;
67892;PMS7003;54688;52.376;16.744;2022-10-17T09:56:55;31;26;
67892;PMS7003;54688;52.376;16.744;2022-10-17T09:59:59;29;23;
67892;PMS7003;54688;52.376;16.744;2022-10-17T10:03:14;25;23;
67892;PMS7003;54688;52.376;16.744;2022-10-17T10:06:18;28;23;
67892;PMS7003;54688;52.376;16.744;2022-10-17T10:09:23;28;25;
67892;PMS7003;54688;52.376;16.744;2022-10-17T10:12:29;33;29;
67892;PMS7003;54688;52.376;16.744;2022-10-17T10:15:34;29;23;
67892;PMS7003;54688;52.376;16.744;2022-10-17T10:18:36;22;21;
67892;PMS7003;54688;52.376;16.744;2022-10-17T10:21:53;23;22;
67892;PMS7003;54688;52.376;16.744;2022-10-17T10:25:14;22;21;
67892;PMS7003;54688;52.376;16.744;2022-10-17T10:28:16;24;21;
67892;PMS7003;54688;52.376;16.744;2022-10-17T10:31:25;25;22;
67892;PMS7003;54688;52.376;16.744;2022-10-17T10:34:29;27;19;
67892;PMS7003;54688;52.376;16.744;2022-10-17T10:37:35;25;25;
67892;PMS7003;54688;52.376;16.744;2022-10-17T10:40:44;30;26;
67892;PMS7003;54688;52.376;16.744;2022-10-17T10:43:48;27;24;
67892;PMS7003;54688;52.376;16.744;2022-10-17T10:47:16;22;17;
67892;PMS7003;54688;52.376;16.744;2022-10-17T10:50:25;23;19;
67892;PMS7003;54688;52.376;16.744;2022-10-17T10:53:33;19;18;
67892;PMS7003;54688;52.376;16.744;2022-10-17T10:56:39;19;19;
67892;PMS7003;54688;52.376;16.744;2022-10-17T10:59:50;23;16;
67892;PMS7003;54688;52.376;16.744;2022-10-17T11:03:00;21;20;
67892;PMS7003;54688;52.376;16.744;2022-10-17T11:06:11;22;20;
67892;PMS7003;54688;52.376;16.744;2022-10-17T11:09:24;20;20;
67892;PMS7003;54688;52.376;16.744;2022-10-17T11:12:29;22;19;
67892;PMS7003;54688;52.376;16.744;2022-10-17T11:15:35;20;16;
67892;PMS7003;54688;52.376;16.744;2022-10-17T11:18:47;24;20;
67892;PMS7003;54688;52.376;16.744;2022-10-17T11:22:01;22;21;
67892;PMS7003;54688;52.376;16.744;2022-10-17T11:25:16;23;20;
67892;PMS7003;54688;52.376;16.744;2022-10-17T11:28:22;20;17;
67892;PMS7003;54688;52.376;16.744;2022-10-17T11:31:29;27;20;
67892;PMS7003;54688;52.376;16.744;2022-10-17T11:34:35;19;17;
67892;PMS7003;54688;52.376;16.744;2022-10-17T11:37:43;15;13;
67892;PMS7003;54688;52.376;16.744;2022-10-17T11:40:49;18;17;
67892;PMS7003;54688;52.376;16.744;2022-10-17T11:43:54;21;19;
67892;PMS7003;54688;52.376;16.744;2022-10-17T11:47:03;17;16;
67892;PMS7003;54688;52.376;16.744;2022-10-17T11:50:15;17;15;
67892;PMS7003;54688;52.376;16.744;2022-10-17T11:53:22;21;17;
67892;PMS7003;54688;52.376;16.744;2022-10-17T11:56:28;16;16;
67892;PMS7003;54688;52.376;16.744;2022-10-17T11:59:47;18;13;
67892;PMS7003;54688;52.376;16.744;2022-10-17T12:03:04;17;15;
67892;PMS7003;54688;52.376;16.744;2022-10-17T12:06:14;15;15;
67892;PMS7003;54688;52.376;16.744;2022-10-17T12:09:24;22;16;
67892;PMS7003;54688;52.376;16.744;2022-10-17T12:12:28;16;15;
67892;PMS7003;54688;52.376;16.744;2022-10-17T12:15:31;15;13;
67892;PMS7003;54688;52.376;16.744;2022-10-17T12:18:33;20;18;
67892;PMS7003;54688;52.376;16.744;2022-10-17T12:21:52;18;13;
67892;PMS7003;54688;52.376;16.744;2022-10-17T12:24:57;18;16;
67892;PMS7003;54688;52.376;16.744;2022-10-17T12:28:12;18;16;
67892;PMS7003;54688;52.376;16.744;2022-10-17T12:31:21;20;16;
67892;PMS7003;54688;52.376;16.744;2022-10-17T12:34:24;14;12;
67892;PMS7003;54688;52.376;16.744;2022-10-17T12:38:18;17;14;
67892;PMS7003;54688;52.376;16.744;2022-10-17T12:41:52;15;14;
67892;PMS7003;54688;52.376;16.744;2022-10-17T12:44:54;18;16;
67892;PMS7003;54688;52.376;16.744;2022-10-17T12:47:57;18;13;
67892;PMS7003;54688;52.376;16.744;2022-10-17T12:51:02;15;15;
67892;PMS7003;54688;52.376;16.744;2022-10-17T12:54:10;14;14;
67892;PMS7003;54688;52.376;16.744;2022-10-17T12:57:18;17;15;
67892;PMS7003;54688;52.376;16.744;2022-10-17T13:00:25;14;14;
67892;PMS7003;54688;52.376;16.744;2022-10-17T13:03:31;18;17;
67892;PMS7003;54688;52.376;16.744;2022-10-17T13:06:37;15;14;
67892;PMS7003;54688;52.376;16.744;2022-10-17T13:09:42;20;15;
67892;PMS7003;54688;52.376;16.744;2022-10-17T13:12:44;20;17;
67892;PMS7003;54688;52.376;16.744;2022-10-17T13:15:49;18;17;
67892;PMS7003;54688;52.376;16.744;2022-10-17T13:21:51;17;17;
67892;PMS7003;54688;52.376;16.744;2022-10-17T13:25:05;19;16;
67892;PMS7003;54688;52.376;16.744;2022-10-17T13:28:12;21;20;
67892;PMS7003;54688;52.376;16.744;2022-10-17T13:31:31;20;16;
67892;PMS7003;54688;52.376;16.744;2022-10-17T13:34:34;20;14;
67892;PMS7003;54688;52.376;16.744;2022-10-17T13:37:38;16;14;
67892;PMS7003;54688;52.376;16.744;2022-10-17T13:40:42;16;14;
67892;PMS7003;54688;52.376;16.744;2022-10-17T13:43:44;15;13;
67892;PMS7003;54688;52.376;16.744;2022-10-17T13:46:47;17;17;
67892;PMS7003;54688;52.376;16.744;2022-10-17T13:49:50;13;12;
67892;PMS7003;54688;52.376;16.744;2022-10-17T13:53:28;17;14;
67892;PMS7003;54688;52.376;16.744;2022-10-17T13:56:31;14;14;
67892;PMS7003;54688;52.376;16.744;2022-10-17T13:59:37;18;14;
67892;PMS7003;54688;52.376;16.744;2022-10-17T14:02:40;11;11;
67892;PMS7003;54688;52.376;16.744;2022-10-17T14:06:07;13;13;
67892;PMS7003;54688;52.376;16.744;2022-10-17T14:09:17;18;15;
67892;PMS7003;54688;52.376;16.744;2022-10-17T14:12:21;18;14;
67892;PMS7003;54688;52.376;16.744;2022-10-17T14:15:25;13;12;
67892;PMS7003;54688;52.376;16.744;2022-10-17T14:18:30;18;18;
67892;PMS7003;54688;52.376;16.744;2022-10-17T14:21:32;14;14;
67892;PMS7003;54688;52.376;16.744;2022-10-17T14:24:35;18;15;
67892;PMS7003;54688;52.376;16.744;2022-10-17T14:27:52;15;14;
67892;PMS7003;54688;52.376;16.744;2022-10-17T14:31:09;15;12;
67892;PMS7003;54688;52.376;16.744;2022-10-17T14:34:20;19;17;
67892;PMS7003;54688;52.376;16.744;2022-10-17T14:37:31;20;19;
67892;PMS7003;54688;52.376;16.744;2022-10-17T14:40:35;17;17;
67892;PMS7003;54688;52.376;16.744;2022-10-17T14:43:38;16;14;
67892;PMS7003;54688;52.376;16.744;2022-10-17T14:46:43;15;14;
67892;PMS7003;54688;52.376;16.744;2022-10-17T14:49:49;20;16;
67892;PMS7003;54688;52.376;16.744;2022-10-17T14:53:01;15;15;
67892;PMS7003;54688;52.376;16.744;2022-10-17T14:56:20;17;17;
67892;PMS7003;54688;52.376;16.744;2022-10-17T14:59:23;19;18;
67892;PMS7003;54688;52.376;16.744;2022-10-17T15:02:26;19;18;
67892;PMS7003;54688;52.376;16.744;2022-10-17T15:05:29;17;14;
67892;PMS7003;54688;52.376;16.744;2022-10-17T15:08:31;20;20;
67892;PMS7003;54688;52.376;16.744;2022-10-17T15:11:33;21;17;
67892;PMS7003;54688;52.376;16.744;2022-10-17T15:14:35;20;18;
67892;PMS7003;54688;52.376;16.744;2022-10-17T15:17:37;20;20;
67892;PMS7003;54688;52.376;16.744;2022-10-17T15:20:39;19;17;
67892;PMS7003;54688;52.376;16.744;2022-10-17T15:23:41;20;16;
67892;PMS7003;54688;52.376;16.744;2022-10-17T15:26:43;18;15;
67892;PMS7003;54688;52.376;16.744;2022-10-17T15:29:46;23;20;
67892;PMS7003;54688;52.376;16.744;2022-10-17T15:32:50;22;19;
67892;PMS7003;54688;52.376;16.744;2022-10-17T15:35:52;19;19;
67892;PMS7003;54688;52.376;16.744;2022-10-17T15:38:56;19;16;
67892;PMS7003;54688;52.376;16.744;2022-10-17T15:41:58;19;18;
67892;PMS7003;54688;52.376;16.744;2022-10-17T15:45:00;23;18;
67892;PMS7003;54688;52.376;16.744;2022-10-17T15:48:04;22;17;
67892;PMS7003;54688;52.376;16.744;2022-10-17T15:51:07;20;17;
67892;PMS7003;54688;52.376;16.744;2022-10-17T15:54:11;25;21;
67892;PMS7003;54688;52.376;16.744;2022-10-17T15:57:16;22;19;
67892;PMS7003;54688;52.376;16.744;2022-10-17T16:00:20;22;19;
67892;PMS7003;54688;52.376;16.744;2022-10-17T16:03:22;23;21;
67892;PMS7003;54688;52.376;16.744;2022-10-17T16:06:24;19;18;
67892;PMS7003;54688;52.376;16.744;2022-10-17T16:09:26;18;17;
67892;PMS7003;54688;52.376;16.744;2022-10-17T16:12:28;23;21;
67892;PMS7003;54688;52.376;16.744;2022-10-17T16:15:30;24;21;
67892;PMS7003;54688;52.376;16.744;2022-10-17T16:18:31;25;21;
67892;PMS7003;54688;52.376;16.744;2022-10-17T16:21:36;30;18;
67892;PMS7003;54688;52.376;16.744;2022-10-17T16:24:39;20;19;
67892;PMS7003;54688;52.376;16.744;2022-10-17T16:27:41;27;22;
67892;PMS7003;54688;52.376;16.744;2022-10-17T16:30:43;36;27;
67892;PMS7003;54688;52.376;16.744;2022-10-17T16:33:45;25;22;
67892;PMS7003;54688;52.376;16.744;2022-10-17T16:36:47;26;23;
67892;PMS7003;54688;52.376;16.744;2022-10-17T16:39:49;33;29;
67892;PMS7003;54688;52.376;16.744;2022-10-17T16:42:51;28;24;
67892;PMS7003;54688;52.376;16.744;2022-10-17T16:45:53;33;27;
67892;PMS7003;54688;52.376;16.744;2022-10-17T16:48:55;30;27;
67892;PMS7003;54688;52.376;16.744;2022-10-17T16:51:57;27;24;
67892;PMS7003;54688;52.376;16.744;2022-10-17T16:55:00;32;29;
67892;PMS7003;54688;52.376;16.744;2022-10-17T16:58:02;30;28;
67892;PMS7003;54688;52.376;16.744;2022-10-17T17:01:06;32;27;
67892;PMS7003;54688;52.376;16.744;2022-10-17T17:04:09;24;22;
67892;PMS7003;54688;52.376;16.744;2022-10-17T17:07:10;37;29;
67892;PMS7003;54688;52.376;16.744;2022-10-17T17:10:12;32;28;
67892;PMS7003;54688;52.376;16.744;2022-10-17T17:13:16;29;23;
67892;PMS7003;54688;52.376;16.744;2022-10-17T17:16:19;34;28;
67892;PMS7003;54688;52.376;16.744;2022-10-17T17:19:21;34;29;
67892;PMS7003;54688;52.376;16.744;2022-10-17T17:22:23;35;29;
67892;PMS7003;54688;52.376;16.744;2022-10-17T17:25:26;25;24;
67892;PMS7003;54688;52.376;16.744;2022-10-17T17:28:28;31;29;
67892;PMS7003;54688;52.376;16.744;2022-10-17T17:31:32;38;31;
67892;PMS7003;54688;52.376;16.744;2022-10-17T17:34:35;37;32;
67892;PMS7003;54688;52.376;16.744;2022-10-17T17:37:37;37;30;
67892;PMS7003;54688;52.376;16.744;2022-10-17T17:40:43;43;30;
67892;PMS7003;54688;52.376;16.744;2022-10-17T17:43:46;32;29;
67892;PMS7003;54688;52.376;16.744;2022-10-17T17:46:49;38;33;
67892;PMS7003;54688;52.376;16.744;2022-10-17T17:49:51;34;30;
67892;PMS7003;54688;52.376;16.744;2022-10-17T17:52:53;34;30;
67892;PMS7003;54688;52.376;16.744;2022-10-17T17:56:00;37;32;
67892;PMS7003;54688;52.376;16.744;2022-10-17T17:59:02;36;32;
67892;PMS7003;54688;52.376;16.744;2022-10-17T18:02:04;44;33;
67892;PMS7003;54688;52.376;16.744;2022-10-17T18:05:07;35;29;
67892;PMS7003;54688;52.376;16.744;2022-10-17T18:08:09;38;32;
67892;PMS7003;54688;52.376;16.744;2022-10-17T18:11:12;39;31;
67892;PMS7003;54688;52.376;16.744;2022-10-17T18:14:13;36;31;
67892;PMS7003;54688;52.376;16.744;2022-10-17T18:17:16;44;37;
67892;PMS7003;54688;52.376;16.744;2022-10-17T18:20:18;46;36;
67892;PMS7003;54688;52.376;16.744;2022-10-17T18:23:20;42;34;
67892;PMS7003;54688;52.376;16.744;2022-10-17T18:26:22;40;32;
67892;PMS7003;54688;52.376;16.744;2022-10-17T18:29:24;49;39;
67892;PMS7003;54688;52.376;16.744;2022-10-17T18:32:29;49;37;
67892;PMS7003;54688;52.376;16.744;2022-10-17T18:35:31;47;37;
67892;PMS7003;54688;52.376;16.744;2022-10-17T18:38:33;35;32;
67892;PMS7003;54688;52.376;16.744;2022-10-17T18:41:34;42;34;
67892;PMS7003;54688;52.376;16.744;2022-10-17T18:44:36;45;34;
67892;PMS7003;54688;52.376;16.744;2022-10-17T18:47:42;46;38;
67892;PMS7003;54688;52.376;16.744;2022-10-17T18:50:44;45;35;
67892;PMS7003;54688;52.376;16.744;2022-10-17T18:53:47;48;35;
67892;PMS7003;54688;52.376;16.744;2022-10-17T18:56:52;41;31;
67892;PMS7003;54688;52.376;16.744;2022-10-17T18:59:55;47;36;
67892;PMS7003;54688;52.376;16.744;2022-10-17T19:02:57;45;34;
67892;PMS7003;54688;52.376;16.744;2022-10-17T19:06:00;44;35;
67892;PMS7003;54688;52.376;16.744;2022-10-17T19:12:01;43;33;
67892;PMS7003;54688;52.376;16.744;2022-10-17T19:15:04;40;34;
67892;PMS7003;54688;52.376;16.744;2022-10-17T19:18:06;45;36;
67892;PMS7003;54688;52.376;16.744;2022-10-17T19:21:09;42;33;
67892;PMS7003;54688;52.376;16.744;2022-10-17T19:24:14;48;36;
67892;PMS7003;54688;52.376;16.744;2022-10-17T19:27:17;49;35;
67892;PMS7003;54688;52.376;16.744;2022-10-17T19:30:18;37;33;
67892;PMS7003;54688;52.376;16.744;2022-10-17T19:33:20;40;34;
67892;PMS7003;54688;52.376;16.744;2022-10-17T19:36:24;42;36;
67892;PMS7003;54688;52.376;16.744;2022-10-17T19:39:26;48;35;
67892;PMS7003;54688;52.376;16.744;2022-10-17T19:42:28;48;37;
67892;PMS7003;54688;52.376;16.744;2022-10-17T19:45:30;49;39;
67892;PMS7003;54688;52.376;16.744;2022-10-17T19:48:33;45;38;
67892;PMS7003;54688;52.376;16.744;2022-10-17T19:51:36;46;38;
67892;PMS7003;54688;52.376;16.744;2022-10-17T19:54:37;46;37;
67892;PMS7003;54688;52.376;16.744;2022-10-17T19:57:40;50;38;
67892;PMS7003;54688;52.376;16.744;2022-10-17T20:00:45;48;38;
67892;PMS7003;54688;52.376;16.744;2022-10-17T20:03:47;54;40;
67892;PMS7003;54688;52.376;16.744;2022-10-17T20:06:49;53;42;
67892;PMS7003;54688;52.376;16.744;2022-10-17T20:09:51;55;43;
67892;PMS7003;54688;52.376;16.744;2022-10-17T20:12:54;49;40;
67892;PMS7003;54688;52.376;16.744;2022-10-17T20:15:56;50;39;